createdAt,value
2023-01-07T00:02:46.997Z,8.46
2023-01-07T00:05:48.535Z,8.48
2023-01-07T00:08:51.555Z,8.42
2023-01-07T00:11:54.386Z,8.42
2023-01-07T00:15:00.179Z,8.42
2023-01-07T00:18:01.652Z,8.36
2023-01-07T00:21:05.076Z,8.35
2023-01-07T00:24:07.502Z,8.36
2023-01-07T00:27:14.200Z,8.28
2023-01-07T00:30:19.977Z,8.33
2023-01-07T00:33:21.477Z,8.30
2023-01-07T00:36:24.752Z,8.29
2023-01-07T00:39:26.460Z,8.25
2023-01-07T00:42:29.263Z,8.26
2023-01-07T00:45:35.618Z,8.34
2023-01-07T00:48:37.115Z,8.33
2023-01-07T00:51:38.582Z,8.26
2023-01-07T00:54:40.134Z,8.26
2023-01-07T00:57:43.788Z,8.22
2023-01-07T01:00:45.812Z,8.15
2023-01-07T01:03:47.407Z,8.23
2023-01-07T01:06:48.920Z,8.33
2023-01-07T01:09:50.506Z,8.33
2023-01-07T01:12:57.412Z,8.28
2023-01-07T01:16:07.945Z,8.23
2023-01-07T01:19:09.486Z,8.31
2023-01-07T01:22:10.961Z,8.35
2023-01-07T01:25:13.145Z,8.42
2023-01-07T01:28:19.148Z,8.44
2023-01-07T01:31:20.649Z,8.45
2023-01-07T01:34:25.535Z,8.45
2023-01-07T01:37:27.102Z,8.54
2023-01-07T01:40:29.768Z,8.51
2023-01-07T01:43:34.546Z,8.52
2023-01-07T01:46:38.191Z,8.53
2023-01-07T01:49:45.146Z,8.52
2023-01-07T01:52:49.876Z,8.50
2023-01-07T01:55:54.373Z,8.44
2023-01-07T01:58:59.855Z,8.37
2023-01-07T02:02:02.068Z,8.38
2023-01-07T02:05:04.718Z,8.31
2023-01-07T02:08:06.769Z,8.25
2023-01-07T02:11:19.696Z,8.13
2023-01-07T02:14:33.939Z,8.13
2023-01-07T02:17:43.800Z,8.08
2023-01-07T02:20:52.892Z,8.25
2023-01-07T02:24:42.240Z,8.36
2023-01-07T02:28:05.722Z,8.38
2023-01-07T02:31:29.042Z,8.41
2023-01-07T02:34:37.846Z,8.32
2023-01-07T02:37:44.568Z,8.38
2023-01-07T02:40:52.997Z,8.49
2023-01-07T02:43:59.591Z,8.51
2023-01-07T02:47:05.046Z,8.58
2023-01-07T02:50:08.525Z,8.60
2023-01-07T02:53:13.723Z,8.62
2023-01-07T02:56:24.368Z,8.62
2023-01-07T02:59:43.315Z,8.60
2023-01-07T03:03:07.844Z,8.71
2023-01-07T03:06:22.468Z,8.71
2023-01-07T03:09:31.925Z,8.68
2023-01-07T03:12:35.404Z,8.67
2023-01-07T03:15:40.315Z,8.64
2023-01-07T03:18:46.166Z,8.62
2023-01-07T03:21:49.137Z,8.61
2023-01-07T03:24:52.518Z,8.59
2023-01-07T03:27:54.569Z,8.58
2023-01-07T03:30:57.009Z,8.59
2023-01-07T03:34:00.585Z,8.64
2023-01-07T03:37:08.213Z,8.67
2023-01-07T03:40:11.324Z,8.67
2023-01-07T03:43:14.728Z,8.47
2023-01-07T03:46:16.412Z,8.43
2023-01-07T03:49:17.956Z,8.43
2023-01-07T03:52:20.863Z,8.42
2023-01-07T03:55:22.712Z,8.41
2023-01-07T03:58:26.987Z,8.44
2023-01-07T04:01:28.615Z,8.45
2023-01-07T04:04:30.283Z,8.45
2023-01-07T04:07:33.453Z,8.45
2023-01-07T04:10:34.936Z,8.43
2023-01-07T04:13:36.540Z,8.46
2023-01-07T04:16:38.114Z,8.50
2023-01-07T04:19:39.766Z,8.49
2023-01-07T04:22:42.620Z,8.51
2023-01-07T04:25:46.221Z,8.57
2023-01-07T04:28:48.859Z,8.59
2023-01-07T04:31:50.722Z,8.65
2023-01-07T04:34:59.080Z,8.64
2023-01-07T04:38:03.821Z,8.66
2023-01-07T04:41:05.857Z,8.64
2023-01-07T04:44:09.051Z,8.54
2023-01-07T04:47:10.593Z,8.50
2023-01-07T04:50:12.095Z,8.56
2023-01-07T04:53:15.703Z,8.59
2023-01-07T04:56:17.465Z,8.49
2023-01-07T04:59:19.996Z,8.55
2023-01-07T05:02:22.458Z,8.53
2023-01-07T05:05:24.508Z,8.56
2023-01-07T05:08:27.824Z,8.60
2023-01-07T05:11:29.403Z,8.62
2023-01-07T05:14:33.173Z,8.62
2023-01-07T05:17:35.308Z,8.60
2023-01-07T05:20:38.837Z,8.56
2023-01-07T05:23:42.668Z,8.64
2023-01-07T05:26:44.148Z,8.57
2023-01-07T05:29:46.131Z,8.55
2023-01-07T05:32:47.626Z,8.51
2023-01-07T05:35:49.272Z,8.55
2023-01-07T05:38:53.618Z,8.48
2023-01-07T05:41:55.554Z,8.44
2023-01-07T05:44:59.110Z,8.42
2023-01-07T05:48:00.609Z,8.46
2023-01-07T05:51:02.155Z,8.23
2023-01-07T05:54:05.133Z,8.14
2023-01-07T05:57:06.590Z,8.12
2023-01-07T06:00:09.220Z,8.04
2023-01-07T06:03:13.631Z,7.95
2023-01-07T06:06:15.128Z,7.76
2023-01-07T06:09:18.023Z,7.73
2023-01-07T06:12:19.991Z,7.75
2023-01-07T06:15:21.475Z,7.75
2023-01-07T06:18:22.926Z,7.66
2023-01-07T06:21:24.341Z,7.65
2023-01-07T06:24:30.340Z,7.74
2023-01-07T06:27:32.076Z,7.74
2023-01-07T06:30:33.540Z,7.71
2023-01-07T06:33:35.001Z,7.71
2023-01-07T06:36:36.505Z,7.66
2023-01-07T06:39:39.326Z,7.68
2023-01-07T06:42:41.117Z,7.68
2023-01-07T06:45:42.611Z,7.74
2023-01-07T06:48:44.137Z,7.71
2023-01-07T06:51:45.563Z,7.69
2023-01-07T06:54:48.703Z,7.66
2023-01-07T06:57:50.272Z,7.68
2023-01-07T07:00:51.776Z,7.63
2023-01-07T07:03:53.343Z,7.62
2023-01-07T07:06:55.217Z,7.60
2023-01-07T07:09:57.869Z,7.63
2023-01-07T07:12:59.387Z,7.62
2023-01-07T07:16:00.896Z,7.55
2023-01-07T07:19:02.448Z,7.57
2023-01-07T07:22:04.838Z,7.57
2023-01-07T07:25:13.105Z,7.56
2023-01-07T07:28:21.199Z,7.49
2023-01-07T07:31:22.683Z,7.43
2023-01-07T07:34:24.130Z,7.52
2023-01-07T07:37:25.599Z,7.60
2023-01-07T07:40:28.389Z,7.52
2023-01-07T07:43:29.845Z,7.61
2023-01-07T07:46:31.431Z,7.67
2023-01-07T07:49:32.913Z,7.73
2023-01-07T07:52:35.212Z,7.70
2023-01-07T07:55:38.043Z,7.75
2023-01-07T07:58:39.703Z,7.78
2023-01-07T08:01:41.190Z,7.83
2023-01-07T08:04:45.588Z,7.87
2023-01-07T08:07:47.059Z,7.99
2023-01-07T08:10:49.938Z,7.96
2023-01-07T08:13:52.031Z,8.02
2023-01-07T08:16:53.585Z,7.97
2023-01-07T08:19:55.012Z,8.01
2023-01-07T08:23:01.248Z,8.09
2023-01-07T08:26:04.200Z,8.17
2023-01-07T08:29:05.657Z,8.26
2023-01-07T08:32:07.164Z,8.33
2023-01-07T08:35:09.957Z,8.35
2023-01-07T08:38:18.759Z,8.41
2023-01-07T08:41:22.554Z,8.46
2023-01-07T08:44:24.031Z,8.47
2023-01-07T08:47:25.601Z,8.59
2023-01-07T08:50:34.911Z,8.63
2023-01-07T08:53:43.251Z,8.67
2023-01-07T08:56:46.027Z,8.69
2023-01-07T08:59:47.514Z,8.69
2023-01-07T09:02:51.310Z,8.69
2023-01-07T09:05:54.394Z,8.72
2023-01-07T09:08:55.849Z,8.72
2023-01-07T09:11:58.682Z,8.76
2023-01-07T09:15:00.319Z,8.82
2023-01-07T09:18:08.088Z,8.82
2023-01-07T09:21:09.536Z,8.86
2023-01-07T09:24:11.037Z,8.95
2023-01-07T09:27:13.895Z,9.00
2023-01-07T09:30:15.986Z,9.04
2023-01-07T09:33:18.838Z,9.02
2023-01-07T09:36:20.317Z,9.09
2023-01-07T09:39:28.839Z,9.17
2023-01-07T09:42:38.448Z,9.22
2023-01-07T09:45:42.684Z,9.21
2023-01-07T09:48:50.807Z,9.19
2023-01-07T09:51:55.231Z,9.21
2023-01-07T09:55:02.082Z,9.22
2023-01-07T09:58:14.553Z,9.26
2023-01-07T10:01:22.384Z,9.26
2023-01-07T10:04:31.458Z,9.26
2023-01-07T10:07:37.808Z,9.25
2023-01-07T10:10:47.447Z,9.29
2023-01-07T10:14:01.773Z,9.33
2023-01-07T10:17:09.852Z,9.38
2023-01-07T10:20:21.832Z,9.44
2023-01-07T10:23:25.861Z,9.41
2023-01-07T10:26:31.891Z,9.48
2023-01-07T10:29:38.904Z,9.46
2023-01-07T10:32:44.859Z,9.53
2023-01-07T10:35:47.907Z,9.49
2023-01-07T10:38:56.438Z,9.54
2023-01-07T10:42:02.603Z,9.56
2023-01-07T10:45:21.688Z,9.63
2023-01-07T10:48:42.258Z,9.70
2023-01-07T10:51:59.611Z,9.66
2023-01-07T10:55:10.356Z,9.64
2023-01-07T10:58:12.156Z,9.69
2023-01-07T11:01:16.255Z,9.66
2023-01-07T11:04:20.246Z,9.69
2023-01-07T11:07:29.799Z,9.68
2023-01-07T11:10:34.068Z,9.68
2023-01-07T11:13:36.319Z,9.78
2023-01-07T11:16:43.994Z,9.80
2023-01-07T11:19:51.880Z,9.83
2023-01-07T11:22:53.384Z,9.83
2023-01-07T11:26:13.931Z,9.93
2023-01-07T11:29:17.424Z,9.90
2023-01-07T11:32:25.336Z,9.92
2023-01-07T11:35:30.688Z,9.88
2023-01-07T11:38:34.051Z,9.84
2023-01-07T11:41:35.640Z,9.70
2023-01-07T11:44:37.348Z,9.66
2023-01-07T11:47:45.627Z,9.65
2023-01-07T11:50:58.821Z,9.59
2023-01-07T11:54:00.362Z,9.56
2023-01-07T11:57:12.447Z,9.49
2023-01-07T12:00:15.398Z,9.48
2023-01-07T12:03:18.288Z,9.49
2023-01-07T12:06:29.831Z,9.52
2023-01-07T12:09:37.709Z,9.55
2023-01-07T12:12:43.027Z,9.54
2023-01-07T12:15:49.840Z,9.56
2023-01-07T12:18:59.971Z,9.52
2023-01-07T12:22:09.950Z,9.63
2023-01-07T12:25:33.755Z,9.66
2023-01-07T12:28:49.904Z,9.66
2023-01-07T12:32:06.986Z,9.59
2023-01-07T12:35:14.462Z,9.52
2023-01-07T12:38:20.103Z,9.49
2023-01-07T12:41:25.620Z,9.47
2023-01-07T12:44:27.168Z,9.48
2023-01-07T12:47:34.952Z,9.46
2023-01-07T12:50:41.156Z,9.42
2023-01-07T12:53:46.637Z,9.35
2023-01-07T12:56:52.174Z,9.33
2023-01-07T13:00:00.187Z,9.31
2023-01-07T13:03:10.620Z,9.32
2023-01-07T13:06:17.387Z,9.37
2023-01-07T13:09:25.537Z,9.34
2023-01-07T13:12:41.596Z,9.34
2023-01-07T13:15:44.379Z,9.39
2023-01-07T13:18:49.165Z,9.41
2023-01-07T13:21:52.179Z,9.36
2023-01-07T13:25:03.977Z,9.36
2023-01-07T13:28:28.872Z,9.36
2023-01-07T13:31:45.499Z,9.30
2023-01-07T13:34:59.850Z,9.34
2023-01-07T13:38:14.216Z,9.31
2023-01-07T13:41:28.283Z,9.31
2023-01-07T13:44:50.243Z,9.29
2023-01-07T13:47:53.547Z,9.31
2023-01-07T13:50:57.416Z,9.39
2023-01-07T13:54:00.321Z,9.41
2023-01-07T13:57:44.450Z,9.39
2023-01-07T14:01:01.613Z,9.43
2023-01-07T14:04:35.536Z,9.44
2023-01-07T14:07:44.448Z,9.54
2023-01-07T14:10:52.089Z,9.55
2023-01-07T14:14:00.634Z,9.49
2023-01-07T14:17:10.281Z,9.52
2023-01-07T14:20:17.325Z,9.58
2023-01-07T14:23:27.726Z,9.58
2023-01-07T14:26:33.079Z,9.59
2023-01-07T14:29:42.014Z,9.63
2023-01-07T14:32:57.735Z,9.54
2023-01-07T14:36:00.820Z,9.38
2023-01-07T14:39:02.291Z,9.24
2023-01-07T14:42:26.841Z,9.00
2023-01-07T14:45:55.008Z,8.85
2023-01-07T14:49:39.448Z,8.80
2023-01-07T14:52:57.051Z,8.75
2023-01-07T14:56:17.608Z,8.66
2023-01-07T14:59:36.641Z,8.59
2023-01-07T15:03:07.978Z,8.64
2023-01-07T15:06:27.459Z,8.48
2023-01-07T15:09:36.745Z,8.51
2023-01-07T15:12:39.898Z,8.46
2023-01-07T15:15:45.515Z,8.40
2023-01-07T15:18:50.147Z,8.27
2023-01-07T15:22:00.875Z,8.07
2023-01-07T15:25:08.972Z,7.92
2023-01-07T15:28:16.066Z,7.90
2023-01-07T15:31:22.815Z,7.93
2023-01-07T15:34:31.194Z,7.89
2023-01-07T15:37:34.343Z,7.87
2023-01-07T15:40:37.113Z,7.82
2023-01-07T15:43:44.319Z,7.74
2023-01-07T15:46:46.021Z,7.81
2023-01-07T15:49:49.076Z,7.86
2023-01-07T15:52:52.372Z,7.86
2023-01-07T15:55:57.402Z,7.77
2023-01-07T15:58:58.929Z,7.67
2023-01-07T16:02:13.118Z,7.74
2023-01-07T16:05:17.545Z,7.71
2023-01-07T16:08:21.756Z,7.72
2023-01-07T16:11:25.491Z,7.74
2023-01-07T16:14:34.373Z,7.66
2023-01-07T16:17:35.831Z,7.68
2023-01-07T16:20:40.773Z,7.50
2023-01-07T16:23:42.290Z,7.51
2023-01-07T16:26:46.388Z,7.64
2023-01-07T16:29:50.958Z,7.72
2023-01-07T16:32:52.509Z,7.73
2023-01-07T16:35:56.421Z,7.69
2023-01-07T16:38:59.323Z,7.59
2023-01-07T16:42:01.855Z,7.57
2023-01-07T16:45:06.125Z,7.44
2023-01-07T16:48:19.904Z,7.48
2023-01-07T16:51:37.490Z,7.56
2023-01-07T16:54:38.942Z,7.60
2023-01-07T16:57:42.357Z,7.55
2023-01-07T17:00:48.662Z,7.60
2023-01-07T17:03:53.805Z,7.49
2023-01-07T17:06:57.958Z,7.63
2023-01-07T17:10:02.209Z,7.64
2023-01-07T17:13:05.562Z,7.48
2023-01-07T17:16:28.738Z,7.60
2023-01-07T17:19:34.666Z,7.51
2023-01-07T17:22:38.401Z,7.47
2023-01-07T17:25:39.886Z,7.28
2023-01-07T17:28:44.280Z,7.60
2023-01-07T17:31:46.400Z,7.47
2023-01-07T17:34:47.955Z,7.54
2023-01-07T17:37:51.314Z,7.55
2023-01-07T17:40:53.162Z,7.52
2023-01-07T17:43:54.616Z,7.45
2023-01-07T17:46:56.172Z,7.34
2023-01-07T17:49:57.685Z,7.33
2023-01-07T17:53:04.506Z,7.35
2023-01-07T17:56:06.572Z,7.25
2023-01-07T17:59:13.472Z,7.45
2023-01-07T18:02:17.547Z,7.28
2023-01-07T18:05:26.733Z,7.28
2023-01-07T18:08:29.530Z,7.68
2023-01-07T18:11:35.215Z,7.33
2023-01-07T18:14:36.938Z,7.40
2023-01-07T18:17:38.465Z,7.18
2023-01-07T18:20:42.665Z,7.16
2023-01-07T18:23:45.504Z,7.28
2023-01-07T18:26:47.361Z,7.22
2023-01-07T18:29:48.748Z,7.01
2023-01-07T18:32:50.252Z,7.12
2023-01-07T18:35:51.684Z,7.09
2023-01-07T18:38:54.570Z,6.97
2023-01-07T18:42:00.473Z,7.24
2023-01-07T18:45:02.051Z,7.04
2023-01-07T18:48:04.216Z,7.01
2023-01-07T18:51:09.696Z,7.18
2023-01-07T18:54:12.595Z,7.11
2023-01-07T18:57:14.073Z,7.20
2023-01-07T19:00:21.872Z,7.14
2023-01-07T19:03:31.041Z,7.08
2023-01-07T19:06:32.831Z,7.22
2023-01-07T19:09:35.747Z,7.27
2023-01-07T19:12:37.317Z,7.41
2023-01-07T19:15:39.393Z,7.37
2023-01-07T19:18:40.992Z,7.23
2023-01-07T19:21:49.243Z,7.27
2023-01-07T19:24:55.610Z,7.16
2023-01-07T19:27:57.477Z,7.32
2023-01-07T19:30:58.983Z,7.33
2023-01-07T19:34:06.909Z,7.25
2023-01-07T19:37:08.373Z,7.30
2023-01-07T19:40:12.935Z,7.21
2023-01-07T19:43:14.686Z,7.34
2023-01-07T19:46:20.704Z,7.48
2023-01-07T19:49:22.886Z,7.46
2023-01-07T19:52:24.618Z,7.37
2023-01-07T19:55:31.151Z,7.28
2023-01-07T19:58:33.512Z,7.39
2023-01-07T20:01:39.609Z,7.50
2023-01-07T20:04:41.199Z,7.50
2023-01-07T20:07:42.689Z,7.49
2023-01-07T20:10:56.237Z,7.45
2023-01-07T20:13:57.703Z,7.56
2023-01-07T20:17:05.420Z,7.49
2023-01-07T20:20:08.421Z,7.64
2023-01-07T20:23:10.043Z,7.59
2023-01-07T20:26:15.890Z,7.65
2023-01-07T20:29:17.515Z,7.55
2023-01-07T20:32:19.920Z,7.52
2023-01-07T20:35:21.475Z,7.54
2023-01-07T20:38:22.952Z,7.41
2023-01-07T20:41:27.146Z,7.48
2023-01-07T20:44:28.732Z,7.33
2023-01-07T20:47:33.147Z,7.25
2023-01-07T20:50:38.268Z,7.39
2023-01-07T20:53:39.759Z,7.27
2023-01-07T20:56:42.845Z,7.21
2023-01-07T20:59:44.654Z,7.19
2023-01-07T21:02:46.268Z,7.32
2023-01-07T21:05:47.919Z,7.34
2023-01-07T21:08:49.982Z,7.30
2023-01-07T21:11:52.864Z,7.46
2023-01-07T21:14:54.511Z,7.46
2023-01-07T21:17:56.153Z,7.41
2023-01-07T21:20:59.232Z,7.48
2023-01-07T21:24:00.855Z,7.71
2023-01-07T21:27:03.825Z,7.62
2023-01-07T21:30:10.761Z,7.67
2023-01-07T21:33:26.871Z,7.82
2023-01-07T21:36:28.710Z,7.83
2023-01-07T21:39:30.223Z,7.83
2023-01-07T21:42:34.641Z,7.77
2023-01-07T21:45:36.457Z,7.86
2023-01-07T21:48:40.000Z,7.80
2023-01-07T21:51:41.623Z,7.84
2023-01-07T21:54:43.108Z,7.87
2023-01-07T21:57:46.183Z,7.88
2023-01-07T22:00:49.545Z,7.87
2023-01-07T22:03:57.707Z,7.87
2023-01-07T22:06:59.185Z,7.84
2023-01-07T22:10:00.777Z,7.86
2023-01-07T22:13:03.602Z,7.71
2023-01-07T22:16:05.962Z,7.84
2023-01-07T22:19:08.813Z,7.95
2023-01-07T22:22:10.317Z,7.80
2023-01-07T22:25:12.042Z,7.82
2023-01-07T22:28:23.712Z,7.88
2023-01-07T22:31:27.175Z,7.99
2023-01-07T22:34:35.746Z,7.97
2023-01-07T22:37:37.316Z,7.94
2023-01-07T22:40:39.303Z,8.00
2023-01-07T22:43:42.059Z,8.10
2023-01-07T22:46:45.377Z,8.00
2023-01-07T22:49:47.815Z,8.03
2023-01-07T22:52:49.296Z,7.94
2023-01-07T22:55:50.935Z,8.04
2023-01-07T22:58:53.816Z,7.97
2023-01-07T23:01:55.391Z,7.96
2023-01-07T23:04:56.915Z,8.02
2023-01-07T23:07:58.411Z,7.99
2023-01-07T23:10:59.996Z,7.97
2023-01-07T23:14:03.464Z,7.88
2023-01-07T23:17:05.671Z,7.92
2023-01-07T23:20:12.215Z,7.92
2023-01-07T23:23:13.929Z,7.81
2023-01-07T23:26:15.568Z,7.72
2023-01-07T23:29:18.858Z,7.65
2023-01-07T23:32:20.361Z,7.57
2023-01-07T23:35:29.113Z,7.67
2023-01-07T23:38:30.643Z,7.72
2023-01-07T23:41:32.661Z,7.73
2023-01-07T23:44:35.387Z,7.78
2023-01-07T23:47:36.919Z,7.76
2023-01-07T23:50:38.490Z,7.73
2023-01-07T23:53:41.605Z,7.77
2023-01-07T23:56:43.093Z,7.70
2023-01-07T23:59:45.990Z,7.71
